createdAt,value
2022-07-29T00:00:42.987Z,0.92
2022-07-29T00:01:42.965Z,11.55
2022-07-29T00:02:43.111Z,10.59
2022-07-29T00:03:43.200Z,11.23
2022-07-29T00:04:43.352Z,10.91
2022-07-29T00:05:43.207Z,11.87
2022-07-29T00:06:43.313Z,11.87
2022-07-29T00:07:43.465Z,22.19
2022-07-29T00:08:43.575Z,11.55
2022-07-29T00:09:51.951Z,21.54
2022-07-29T00:10:43.731Z,2.53
2022-07-29T00:11:43.643Z,11.87
2022-07-29T00:12:43.738Z,11.55
2022-07-29T00:13:49.026Z,11.55
2022-07-29T00:14:43.953Z,0.60
2022-07-29T00:15:44.003Z,21.22
2022-07-29T00:16:44.162Z,11.55
2022-07-29T00:17:44.210Z,10.91
2022-07-29T00:18:44.305Z,10.91
2022-07-29T00:19:45.696Z,0.92
2022-07-29T00:20:44.484Z,22.83
2022-07-29T00:21:44.503Z,11.55
2022-07-29T00:22:44.585Z,9.30
2022-07-29T00:23:44.681Z,0.60
2022-07-29T00:24:44.659Z,11.55
2022-07-29T00:25:44.776Z,10.91
2022-07-29T00:26:44.928Z,11.23
2022-07-29T00:27:45.014Z,18.32
2022-07-29T00:28:45.162Z,19.93
2022-07-29T00:29:45.168Z,10.91
2022-07-29T00:30:45.201Z,10.26
2022-07-29T00:31:45.429Z,11.55
2022-07-29T00:32:45.376Z,21.22
2022-07-29T00:33:45.431Z,11.23
2022-07-29T00:34:45.525Z,-0.37
2022-07-29T00:35:45.986Z,13.81
2022-07-29T00:36:45.708Z,1.56
2022-07-29T00:37:45.774Z,11.23
2022-07-29T00:38:45.867Z,2.21
2022-07-29T00:39:45.857Z,11.55
2022-07-29T00:40:45.967Z,19.93
2022-07-29T00:41:46.193Z,2.21
2022-07-29T00:42:46.208Z,19.93
2022-07-29T00:43:46.260Z,5.43
2022-07-29T00:44:46.268Z,19.29
2022-07-29T00:45:46.455Z,22.19
2022-07-29T00:46:46.644Z,11.23
2022-07-29T00:47:46.712Z,18.00
2022-07-29T00:48:46.740Z,12.20
2022-07-29T00:49:46.753Z,3.50
2022-07-29T00:50:46.859Z,11.55
2022-07-29T00:51:46.987Z,11.87
2022-07-29T00:52:47.021Z,11.87
2022-07-29T00:53:47.021Z,4.46
2022-07-29T00:54:47.115Z,3.17
2022-07-29T00:55:47.125Z,11.87
2022-07-29T00:56:47.292Z,20.25
2022-07-29T00:57:47.217Z,18.64
2022-07-29T00:58:47.303Z,0.92
2022-07-29T00:59:47.391Z,11.55
2022-07-29T01:00:47.674Z,18.96
2022-07-29T01:01:47.714Z,11.55
2022-07-29T01:02:47.711Z,11.87
2022-07-29T01:03:47.740Z,12.84
2022-07-29T01:04:47.829Z,11.87
2022-07-29T01:05:48.104Z,11.55
2022-07-29T01:06:48.023Z,8.65
2022-07-29T01:07:47.945Z,12.84
2022-07-29T01:08:48.008Z,4.14
2022-07-29T01:09:48.224Z,3.82
2022-07-29T01:10:48.183Z,18.96
2022-07-29T01:11:48.405Z,10.91
2022-07-29T01:12:48.420Z,11.87
2022-07-29T01:13:48.524Z,11.87
2022-07-29T01:14:48.599Z,17.03
2022-07-29T01:15:49.269Z,11.87
2022-07-29T01:16:48.840Z,6.72
2022-07-29T01:17:53.195Z,20.90
2022-07-29T01:18:48.905Z,12.84
2022-07-29T01:19:48.995Z,11.87
2022-07-29T01:20:48.971Z,20.25
2022-07-29T01:21:49.201Z,11.55
2022-07-29T01:22:49.190Z,17.35
2022-07-29T01:23:49.286Z,21.22
2022-07-29T01:24:49.325Z,20.90
2022-07-29T01:25:53.246Z,11.23
2022-07-29T01:26:49.530Z,12.52
2022-07-29T01:27:49.620Z,12.20
2022-07-29T01:28:49.654Z,3.50
2022-07-29T01:29:49.785Z,11.87
2022-07-29T01:30:49.826Z,13.49
2022-07-29T01:31:59.187Z,12.52
2022-07-29T01:32:49.959Z,11.55
2022-07-29T01:33:50.021Z,13.16
2022-07-29T01:34:50.098Z,22.51
2022-07-29T01:35:50.182Z,13.16
2022-07-29T01:36:50.395Z,11.55
2022-07-29T01:37:50.284Z,20.90
2022-07-29T01:38:50.361Z,12.20
2022-07-29T01:39:50.440Z,22.83
2022-07-29T01:40:50.515Z,2.85
2022-07-29T01:41:50.627Z,21.54
2022-07-29T01:42:50.655Z,12.52
2022-07-29T01:43:50.753Z,12.52
2022-07-29T01:44:50.773Z,3.50
2022-07-29T01:45:50.833Z,11.87
2022-07-29T01:46:51.074Z,21.87
2022-07-29T01:47:51.076Z,3.17
2022-07-29T01:48:51.186Z,12.84
2022-07-29T01:49:51.172Z,5.75
2022-07-29T01:50:51.269Z,13.81
2022-07-29T01:51:51.373Z,6.40
2022-07-29T01:52:51.385Z,22.51
2022-07-29T01:53:51.346Z,12.52
2022-07-29T01:54:51.432Z,12.52
2022-07-29T01:55:51.547Z,12.20
2022-07-29T01:56:51.702Z,20.25
2022-07-29T01:57:51.761Z,11.55
2022-07-29T01:58:51.870Z,13.16
2022-07-29T01:59:51.913Z,21.87
2022-07-29T02:00:52.110Z,13.49
2022-07-29T02:01:54.339Z,12.84
2022-07-29T02:02:52.099Z,22.83
2022-07-29T02:03:52.171Z,3.50
2022-07-29T02:04:52.375Z,20.90
2022-07-29T02:05:52.424Z,12.52
2022-07-29T02:06:52.545Z,21.22
2022-07-29T02:07:52.584Z,12.84
2022-07-29T02:08:53.516Z,20.25
2022-07-29T02:09:52.736Z,12.52
2022-07-29T02:10:52.812Z,4.14
2022-07-29T02:11:52.954Z,11.87
2022-07-29T02:12:52.990Z,20.58
2022-07-29T02:13:53.077Z,21.87
2022-07-29T02:14:53.143Z,12.84
2022-07-29T02:15:53.243Z,12.20
2022-07-29T02:16:53.346Z,13.81
2022-07-29T02:17:53.388Z,13.49
2022-07-29T02:18:53.489Z,13.16
2022-07-29T02:19:53.526Z,13.16
2022-07-29T02:20:53.506Z,21.22
2022-07-29T02:21:53.729Z,13.16
2022-07-29T02:22:53.786Z,17.35
2022-07-29T02:23:53.874Z,13.16
2022-07-29T02:24:53.927Z,12.52
2022-07-29T02:25:53.985Z,12.20
2022-07-29T02:26:54.206Z,8.01
2022-07-29T02:27:54.192Z,18.96
2022-07-29T02:28:54.252Z,22.51
2022-07-29T02:29:54.302Z,12.84
2022-07-29T02:30:54.487Z,6.07
2022-07-29T02:31:54.520Z,12.84
2022-07-29T02:32:54.552Z,12.20
2022-07-29T02:33:54.643Z,10.91
2022-07-29T02:34:54.761Z,12.84
2022-07-29T02:35:54.834Z,12.20
2022-07-29T02:36:55.011Z,11.87
2022-07-29T02:37:54.947Z,12.84
2022-07-29T02:38:54.972Z,5.75
2022-07-29T02:39:55.139Z,12.20
2022-07-29T02:40:55.223Z,12.20
2022-07-29T02:41:55.349Z,9.94
2022-07-29T02:42:55.423Z,11.55
2022-07-29T02:43:55.506Z,4.14
2022-07-29T02:44:55.569Z,12.52
2022-07-29T02:45:55.629Z,12.20
2022-07-29T02:46:55.871Z,21.54
2022-07-29T02:47:55.801Z,12.20
2022-07-29T02:48:55.996Z,12.20
2022-07-29T02:49:56.008Z,4.79
2022-07-29T02:50:56.108Z,3.50
2022-07-29T02:51:56.255Z,12.52
2022-07-29T02:52:56.211Z,17.03
2022-07-29T02:53:56.275Z,4.79
2022-07-29T02:54:56.378Z,15.74
2022-07-29T02:55:56.455Z,19.29
2022-07-29T02:56:56.586Z,4.79
2022-07-29T02:57:56.616Z,12.52
2022-07-29T02:58:56.667Z,18.00
2022-07-29T02:59:56.858Z,12.20
2022-07-29T03:00:56.751Z,5.43
2022-07-29T03:01:57.111Z,22.51
2022-07-29T03:02:57.005Z,15.10
2022-07-29T03:03:57.068Z,12.52
2022-07-29T03:04:57.247Z,11.87
2022-07-29T03:05:57.220Z,12.52
2022-07-29T03:06:57.368Z,11.23
2022-07-29T03:07:57.357Z,11.87
2022-07-29T03:08:57.421Z,3.82
2022-07-29T03:09:57.492Z,10.91
2022-07-29T03:10:57.667Z,12.84
2022-07-29T03:11:57.735Z,5.43
2022-07-29T03:12:57.745Z,11.55
2022-07-29T03:13:57.803Z,12.20
2022-07-29T03:14:57.872Z,12.52
2022-07-29T03:15:57.953Z,21.87
2022-07-29T03:16:58.075Z,6.07
2022-07-29T03:17:58.131Z,7.36
2022-07-29T03:18:58.151Z,7.36
2022-07-29T03:19:58.264Z,3.82
2022-07-29T03:20:58.361Z,12.84
2022-07-29T03:21:58.498Z,1.88
2022-07-29T03:22:58.528Z,12.52
2022-07-29T03:23:58.591Z,12.20
2022-07-29T03:24:58.656Z,12.20
2022-07-29T03:25:58.763Z,11.23
2022-07-29T03:26:58.848Z,12.20
2022-07-29T03:27:58.908Z,13.16
2022-07-29T03:28:58.965Z,21.87
2022-07-29T03:29:59.085Z,20.25
2022-07-29T03:30:59.087Z,17.68
2022-07-29T03:31:59.241Z,12.52
2022-07-29T03:32:59.257Z,4.79
2022-07-29T03:33:59.408Z,12.52
2022-07-29T03:34:59.415Z,11.87
2022-07-29T03:35:59.539Z,4.14
2022-07-29T03:36:59.805Z,13.49
2022-07-29T03:37:59.706Z,7.04
2022-07-29T03:38:59.802Z,11.87
2022-07-29T03:39:59.914Z,2.85
2022-07-29T03:40:59.950Z,22.51
2022-07-29T03:42:00.082Z,17.68
2022-07-29T03:43:00.091Z,12.52
2022-07-29T03:44:00.196Z,4.14
2022-07-29T03:45:00.276Z,12.84
2022-07-29T03:46:06.513Z,22.19
2022-07-29T03:47:00.485Z,12.84
2022-07-29T03:48:01.476Z,12.84
2022-07-29T03:49:00.739Z,13.49
2022-07-29T03:50:00.706Z,3.82
2022-07-29T03:51:00.830Z,4.14
2022-07-29T03:52:00.951Z,13.81
2022-07-29T03:53:00.951Z,21.87
2022-07-29T03:54:02.949Z,2.21
2022-07-29T03:55:01.208Z,5.43
2022-07-29T03:56:01.133Z,12.84
2022-07-29T03:57:01.331Z,8.01
2022-07-29T03:58:01.337Z,12.52
2022-07-29T03:59:01.395Z,17.35
2022-07-29T04:00:01.486Z,5.11
2022-07-29T04:01:01.571Z,13.49
2022-07-29T04:02:01.777Z,17.03
2022-07-29T04:03:01.835Z,12.84
2022-07-29T04:04:01.929Z,13.49
2022-07-29T04:05:01.892Z,13.49
2022-07-29T04:06:01.964Z,14.13
2022-07-29T04:07:02.153Z,2.21
2022-07-29T04:08:02.128Z,15.42
2022-07-29T04:09:02.198Z,12.52
2022-07-29T04:10:02.192Z,22.83
2022-07-29T04:11:02.322Z,13.16
2022-07-29T04:12:04.318Z,12.52
2022-07-29T04:13:02.516Z,21.22
2022-07-29T04:14:02.598Z,12.84
2022-07-29T04:15:02.636Z,14.45
2022-07-29T04:16:02.783Z,14.45
2022-07-29T04:17:02.831Z,13.81
2022-07-29T04:18:02.854Z,11.87
2022-07-29T04:19:02.926Z,14.13
2022-07-29T04:20:02.989Z,12.52
2022-07-29T04:21:03.086Z,13.16
2022-07-29T04:22:03.149Z,12.84
2022-07-29T04:23:03.205Z,13.49
2022-07-29T04:24:03.307Z,5.43
2022-07-29T04:25:04.448Z,3.50
2022-07-29T04:26:03.438Z,7.04
2022-07-29T04:27:03.571Z,13.81
2022-07-29T04:28:03.594Z,13.81
2022-07-29T04:29:03.635Z,12.84
2022-07-29T04:30:03.731Z,23.15
2022-07-29T04:31:03.869Z,22.83
2022-07-29T04:32:03.972Z,22.19
2022-07-29T04:33:04.078Z,20.25
2022-07-29T04:34:04.061Z,14.13
2022-07-29T04:35:04.164Z,8.97
2022-07-29T04:36:04.212Z,0.27
2022-07-29T04:37:04.632Z,14.13
2022-07-29T04:38:04.379Z,13.81
2022-07-29T04:39:04.471Z,14.13
2022-07-29T04:40:04.593Z,11.23
2022-07-29T04:41:04.675Z,13.81
2022-07-29T04:42:04.812Z,6.40
2022-07-29T04:43:05.885Z,25.41
2022-07-29T04:44:04.895Z,13.81
2022-07-29T04:45:04.999Z,5.43
2022-07-29T04:46:05.039Z,14.13
2022-07-29T04:47:05.118Z,8.01
2022-07-29T04:48:05.096Z,13.81
2022-07-29T04:49:05.288Z,18.96
2022-07-29T04:50:05.302Z,3.82
2022-07-29T04:51:05.366Z,14.13
2022-07-29T04:52:05.511Z,6.07
2022-07-29T04:53:05.541Z,17.03
2022-07-29T04:54:05.696Z,14.13
2022-07-29T04:55:05.733Z,13.49
2022-07-29T04:56:05.844Z,2.85
2022-07-29T04:57:06.009Z,12.84
2022-07-29T04:58:06.035Z,14.45
2022-07-29T04:59:06.062Z,13.81
2022-07-29T05:00:06.145Z,25.41
2022-07-29T05:01:06.312Z,13.49
2022-07-29T05:02:06.439Z,-3.92
2022-07-29T05:03:06.504Z,20.58
2022-07-29T05:04:06.452Z,5.11
2022-07-29T05:05:06.585Z,14.13
2022-07-29T05:06:06.594Z,14.13
2022-07-29T05:07:06.750Z,13.16
2022-07-29T05:08:06.800Z,25.09
2022-07-29T05:09:06.938Z,13.49
2022-07-29T05:10:06.949Z,18.96
2022-07-29T05:11:12.538Z,13.49
2022-07-29T05:12:07.117Z,25.09
2022-07-29T05:13:07.188Z,7.69
2022-07-29T05:14:07.205Z,5.43
2022-07-29T05:15:07.281Z,13.49
2022-07-29T05:16:07.496Z,13.81
2022-07-29T05:17:07.526Z,13.81
2022-07-29T05:18:07.618Z,7.36
2022-07-29T05:19:12.173Z,27.02
2022-07-29T05:20:07.723Z,2.21
2022-07-29T05:21:07.804Z,14.13
2022-07-29T05:22:07.897Z,17.03
2022-07-29T05:23:07.957Z,15.10
2022-07-29T05:24:08.106Z,16.39
2022-07-29T05:25:09.258Z,14.13
2022-07-29T05:26:08.245Z,13.49
2022-07-29T05:27:08.344Z,13.49
2022-07-29T05:28:08.385Z,22.19
2022-07-29T05:29:08.532Z,13.49
2022-07-29T05:30:08.553Z,14.13
2022-07-29T05:31:08.721Z,8.01
2022-07-29T05:32:08.793Z,23.48
2022-07-29T05:33:08.868Z,14.13
2022-07-29T05:34:08.864Z,20.58
2022-07-29T05:35:08.985Z,13.49
2022-07-29T05:36:08.970Z,4.14
2022-07-29T05:37:09.307Z,14.45
2022-07-29T05:38:09.197Z,13.81
2022-07-29T05:39:09.314Z,27.02
2022-07-29T05:40:09.371Z,14.13
2022-07-29T05:41:09.478Z,19.93
2022-07-29T05:42:09.623Z,11.55
2022-07-29T05:43:09.594Z,14.78
2022-07-29T05:44:09.691Z,14.45
2022-07-29T05:45:09.800Z,18.96
2022-07-29T05:46:09.895Z,14.78
2022-07-29T05:47:10.623Z,15.10
2022-07-29T05:48:09.902Z,8.65
2022-07-29T05:49:10.224Z,7.69
2022-07-29T05:50:10.203Z,16.06
2022-07-29T05:51:10.236Z,15.10
2022-07-29T05:52:10.436Z,15.42
2022-07-29T05:53:19.131Z,15.42
2022-07-29T05:54:10.510Z,22.83
2022-07-29T05:55:10.601Z,6.07
2022-07-29T05:56:10.668Z,16.71
2022-07-29T05:57:10.829Z,15.10
2022-07-29T05:58:10.831Z,24.12
2022-07-29T05:59:18.033Z,5.75
2022-07-29T06:00:11.035Z,16.06
2022-07-29T06:01:11.129Z,15.74
2022-07-29T06:02:11.236Z,25.41
2022-07-29T06:03:11.229Z,7.69
2022-07-29T06:04:11.471Z,17.03
2022-07-29T06:05:16.220Z,9.94
2022-07-29T06:06:11.468Z,23.80
2022-07-29T06:07:11.584Z,16.06
2022-07-29T06:08:11.629Z,8.65
2022-07-29T06:09:12.152Z,4.79
2022-07-29T06:10:11.768Z,15.42
2022-07-29T06:11:11.836Z,9.62
2022-07-29T06:12:11.865Z,9.94
2022-07-29T06:13:12.052Z,15.42
2022-07-29T06:14:12.285Z,15.74
2022-07-29T06:15:12.169Z,6.40
2022-07-29T06:16:12.311Z,14.78
2022-07-29T06:17:12.462Z,18.32
2022-07-29T06:18:12.421Z,25.73
2022-07-29T06:19:12.507Z,9.62
2022-07-29T06:20:12.547Z,15.74
2022-07-29T06:21:12.666Z,21.54
2022-07-29T06:22:12.805Z,6.40
2022-07-29T06:23:12.833Z,7.04
2022-07-29T06:24:13.141Z,16.06
2022-07-29T06:25:13.016Z,15.42
2022-07-29T06:26:13.065Z,24.12
2022-07-29T06:27:13.207Z,8.33
2022-07-29T06:28:13.185Z,15.42
2022-07-29T06:29:13.334Z,15.10
2022-07-29T06:30:13.571Z,24.12
2022-07-29T06:31:13.594Z,15.10
2022-07-29T06:32:13.676Z,5.43
2022-07-29T06:33:13.662Z,8.01
2022-07-29T06:34:14.321Z,8.01
2022-07-29T06:36:13.860Z,14.45
2022-07-29T06:37:15.801Z,15.10
2022-07-29T06:38:31.083Z,10.26
2022-07-29T06:39:14.466Z,14.78
2022-07-29T06:40:14.287Z,8.97
2022-07-29T06:41:14.303Z,9.30
2022-07-29T06:42:14.436Z,3.50
2022-07-29T06:43:14.492Z,19.61
2022-07-29T06:44:14.913Z,8.33
2022-07-29T06:45:14.617Z,15.74
2022-07-29T06:46:14.659Z,15.10
2022-07-29T06:47:14.654Z,25.41
2022-07-29T06:48:14.775Z,18.64
2022-07-29T06:49:14.917Z,25.09
2022-07-29T06:50:14.872Z,7.04
2022-07-29T06:51:14.945Z,12.52
2022-07-29T06:52:14.996Z,15.42
2022-07-29T06:53:15.145Z,23.48
2022-07-29T06:54:15.510Z,7.36
2022-07-29T06:55:25.023Z,15.42
2022-07-29T06:56:15.544Z,11.23
2022-07-29T06:57:15.445Z,16.06
2022-07-29T06:58:15.570Z,11.87
2022-07-29T06:59:15.892Z,17.03
2022-07-29T07:00:15.882Z,18.00
2022-07-29T07:01:15.813Z,22.83
2022-07-29T07:02:15.909Z,16.71
2022-07-29T07:03:16.069Z,6.40
2022-07-29T07:04:16.410Z,16.71
2022-07-29T07:05:16.203Z,17.03
2022-07-29T07:06:16.213Z,7.36
2022-07-29T07:07:16.337Z,18.00
2022-07-29T07:08:16.418Z,13.49
2022-07-29T07:09:16.431Z,28.31
2022-07-29T07:10:16.504Z,16.71
2022-07-29T07:11:16.577Z,17.35
2022-07-29T07:12:16.744Z,17.35
2022-07-29T07:13:16.888Z,18.00
2022-07-29T07:14:17.147Z,17.68
2022-07-29T07:15:16.999Z,17.03
2022-07-29T07:16:17.136Z,17.68
2022-07-29T07:17:17.024Z,25.41
2022-07-29T07:18:17.267Z,18.00
2022-07-29T07:19:17.188Z,18.32
2022-07-29T07:20:17.383Z,10.59
2022-07-29T07:21:18.924Z,17.68
2022-07-29T07:22:17.397Z,13.81
2022-07-29T07:23:17.540Z,18.32
2022-07-29T07:24:17.865Z,12.20
2022-07-29T07:25:17.751Z,19.29
2022-07-29T07:26:17.743Z,26.05
2022-07-29T07:27:17.785Z,23.80
2022-07-29T07:28:17.905Z,24.77
2022-07-29T07:29:18.033Z,15.42
2022-07-29T07:30:18.114Z,28.31
2022-07-29T07:31:18.250Z,26.70
2022-07-29T07:32:18.255Z,14.13
2022-07-29T07:33:18.406Z,19.93
2022-07-29T07:34:28.236Z,15.10
2022-07-29T07:35:18.412Z,19.61
2022-07-29T07:36:18.500Z,25.09
2022-07-29T07:37:18.618Z,20.58
2022-07-29T07:38:19.039Z,25.73
2022-07-29T07:39:18.842Z,13.49
2022-07-29T07:40:19.046Z,23.80
2022-07-29T07:41:18.864Z,16.39
2022-07-29T07:42:18.996Z,21.22
2022-07-29T07:43:19.109Z,20.58
2022-07-29T07:44:19.494Z,16.71
2022-07-29T07:45:19.284Z,20.90
2022-07-29T07:46:19.407Z,20.90
2022-07-29T07:47:19.354Z,23.48
2022-07-29T07:48:19.472Z,22.83
2022-07-29T07:49:19.528Z,14.13
2022-07-29T07:50:19.561Z,20.25
2022-07-29T07:51:19.581Z,18.64
2022-07-29T07:52:19.799Z,26.38
2022-07-29T07:53:19.915Z,26.38
2022-07-29T07:54:20.741Z,20.90
2022-07-29T07:55:20.081Z,20.25
2022-07-29T07:56:20.078Z,13.81
2022-07-29T07:57:20.187Z,20.90
2022-07-29T07:58:20.190Z,20.58
2022-07-29T07:59:20.315Z,20.90
2022-07-29T08:00:22.976Z,21.22
2022-07-29T08:01:20.586Z,21.22
2022-07-29T08:02:20.659Z,21.22
2022-07-29T08:03:20.648Z,27.02
2022-07-29T08:04:26.620Z,21.22
2022-07-29T08:05:20.762Z,20.58
2022-07-29T08:06:20.871Z,21.22
2022-07-29T08:07:20.934Z,21.87
2022-07-29T08:08:21.024Z,28.31
2022-07-29T08:09:29.191Z,21.54
2022-07-29T08:10:21.173Z,21.22
2022-07-29T08:11:21.134Z,17.68
2022-07-29T08:12:21.297Z,15.42
2022-07-29T08:13:21.498Z,21.54
2022-07-29T08:14:21.457Z,20.90
2022-07-29T08:15:21.546Z,26.38
2022-07-29T08:16:21.661Z,20.58
2022-07-29T08:17:21.705Z,15.42
2022-07-29T08:18:22.065Z,21.54
2022-07-29T08:19:21.855Z,24.12
2022-07-29T08:20:21.881Z,13.16
2022-07-29T08:21:21.983Z,18.96
2022-07-29T08:22:21.989Z,21.87
2022-07-29T08:23:22.196Z,21.54
2022-07-29T08:24:22.104Z,20.90
2022-07-29T08:25:22.196Z,21.22
2022-07-29T08:26:22.310Z,21.22
2022-07-29T08:27:42.353Z,21.22
2022-07-29T08:28:25.852Z,16.06
2022-07-29T08:29:22.556Z,19.93
2022-07-29T08:30:22.656Z,20.58
2022-07-29T08:31:22.891Z,20.90
2022-07-29T08:32:43.754Z,18.32
2022-07-29T08:33:22.974Z,20.90
2022-07-29T08:34:27.846Z,27.67
2022-07-29T08:35:23.112Z,12.52
2022-07-29T08:36:23.178Z,16.71
2022-07-29T08:37:23.230Z,20.90
2022-07-29T08:38:23.450Z,20.90
2022-07-29T08:39:23.397Z,20.25
2022-07-29T08:40:32.144Z,19.93
2022-07-29T08:41:23.535Z,27.34
2022-07-29T08:42:23.594Z,21.22
2022-07-29T08:43:23.698Z,20.25
2022-07-29T08:44:31.156Z,17.68
2022-07-29T08:45:23.942Z,18.64
2022-07-29T08:46:24.021Z,19.29
2022-07-29T08:47:24.074Z,27.34
2022-07-29T08:48:24.244Z,22.19
2022-07-29T08:49:24.227Z,20.25
2022-07-29T08:50:24.355Z,20.25
2022-07-29T08:51:24.363Z,20.58
2022-07-29T08:52:24.522Z,20.25
2022-07-29T08:53:24.615Z,21.22
2022-07-29T08:54:24.604Z,20.25
2022-07-29T08:55:24.674Z,22.19
2022-07-29T08:56:24.751Z,20.90
2022-07-29T08:57:24.876Z,21.22
2022-07-29T08:58:25.672Z,21.54
2022-07-29T08:59:24.935Z,25.09
2022-07-29T09:00:25.002Z,26.70
2022-07-29T09:01:34.986Z,15.42
2022-07-29T09:02:25.158Z,20.25
2022-07-29T09:03:25.455Z,19.93
2022-07-29T09:04:25.339Z,15.74
2022-07-29T09:05:25.426Z,27.02
2022-07-29T09:06:25.475Z,25.41
2022-07-29T09:07:25.533Z,23.15
2022-07-29T09:08:25.649Z,19.29
2022-07-29T09:09:25.686Z,20.90
2022-07-29T09:10:25.799Z,13.81
2022-07-29T09:11:25.898Z,20.90
2022-07-29T09:12:29.477Z,26.05
2022-07-29T09:13:26.103Z,20.58
2022-07-29T09:14:26.202Z,27.67
2022-07-29T09:15:26.235Z,20.58
2022-07-29T09:16:50.817Z,20.90
2022-07-29T09:17:26.437Z,19.61
2022-07-29T09:18:30.950Z,23.48
2022-07-29T09:19:26.547Z,19.61
2022-07-29T09:20:26.618Z,19.61
2022-07-29T09:21:26.700Z,19.61
2022-07-29T09:22:26.729Z,19.61
2022-07-29T09:23:26.869Z,14.45
2022-07-29T09:24:26.921Z,13.49
2022-07-29T09:25:27.108Z,18.96
2022-07-29T09:26:27.080Z,19.29
2022-07-29T09:27:27.133Z,15.74
2022-07-29T09:28:27.321Z,17.03
2022-07-29T09:29:27.311Z,19.29
2022-07-29T09:30:28.871Z,20.90
2022-07-29T09:31:27.542Z,15.42
2022-07-29T09:32:27.520Z,18.64
2022-07-29T09:33:27.639Z,26.38
2022-07-29T09:34:27.673Z,18.96
2022-07-29T09:35:27.804Z,18.96
2022-07-29T09:36:27.814Z,18.96
2022-07-29T09:37:27.904Z,18.64
2022-07-29T09:38:28.244Z,15.10
2022-07-29T09:39:28.073Z,18.96
2022-07-29T09:40:28.109Z,24.77
2022-07-29T09:41:28.441Z,12.20
2022-07-29T09:42:28.292Z,10.91
2022-07-29T09:43:28.417Z,19.93
2022-07-29T09:44:28.452Z,13.16
2022-07-29T09:45:28.535Z,11.55
2022-07-29T09:46:28.644Z,18.32
2022-07-29T09:47:28.691Z,15.74
2022-07-29T09:48:28.857Z,14.13
2022-07-29T09:49:29.026Z,19.61
2022-07-29T09:50:29.036Z,11.87
2022-07-29T09:51:38.104Z,26.05
2022-07-29T09:52:29.097Z,19.61
2022-07-29T09:53:29.230Z,26.05
2022-07-29T09:54:30.065Z,16.71
2022-07-29T09:55:29.342Z,18.96
2022-07-29T09:56:29.422Z,25.41
2022-07-29T09:57:35.949Z,19.61
2022-07-29T09:58:29.613Z,18.96
2022-07-29T09:59:29.659Z,15.42
2022-07-29T10:00:29.766Z,19.61
2022-07-29T10:01:30.725Z,18.96
2022-07-29T10:02:29.889Z,11.55
2022-07-29T10:03:30.153Z,13.49
2022-07-29T10:04:30.061Z,18.96
2022-07-29T10:05:36.872Z,19.29
2022-07-29T10:06:30.229Z,20.90
2022-07-29T10:07:30.278Z,18.96
2022-07-29T10:08:30.378Z,23.15
2022-07-29T10:09:30.426Z,19.29
2022-07-29T10:10:30.528Z,20.25
2022-07-29T10:11:48.101Z,19.29
2022-07-29T10:12:30.675Z,18.32
2022-07-29T10:13:30.799Z,20.58
2022-07-29T10:14:30.793Z,23.48
2022-07-29T10:15:30.849Z,19.29
2022-07-29T10:16:31.031Z,25.09
2022-07-29T10:17:31.050Z,15.10
2022-07-29T10:18:31.166Z,18.64
2022-07-29T10:19:31.170Z,23.48
2022-07-29T10:20:31.305Z,19.29
2022-07-29T10:21:35.995Z,18.96
2022-07-29T10:22:52.336Z,19.29
2022-07-29T10:23:47.121Z,19.61
2022-07-29T10:24:31.599Z,19.61
2022-07-29T10:25:31.688Z,19.61
2022-07-29T10:26:32.786Z,19.61
2022-07-29T10:27:32.965Z,19.61
2022-07-29T10:28:31.921Z,26.70
2022-07-29T10:29:31.998Z,19.29
2022-07-29T10:30:32.174Z,19.29
2022-07-29T10:31:32.228Z,25.09
2022-07-29T10:32:32.248Z,18.96
2022-07-29T10:33:32.359Z,19.61
2022-07-29T10:34:32.412Z,25.73
2022-07-29T10:35:32.491Z,19.29
2022-07-29T10:36:32.539Z,18.64
2022-07-29T10:37:36.181Z,12.20
2022-07-29T10:38:32.839Z,19.61
2022-07-29T10:39:34.361Z,26.70
2022-07-29T10:40:32.894Z,16.71
2022-07-29T10:41:44.123Z,19.61
2022-07-29T10:42:34.119Z,14.13
2022-07-29T10:43:33.129Z,21.87
2022-07-29T10:44:33.211Z,15.74
2022-07-29T10:45:33.210Z,14.78
2022-07-29T10:46:33.357Z,12.20
2022-07-29T10:47:35.328Z,19.29
2022-07-29T10:48:33.509Z,16.39
2022-07-29T10:49:33.745Z,17.68
2022-07-29T10:50:33.636Z,19.61
2022-07-29T10:51:33.679Z,19.61
2022-07-29T10:52:33.792Z,20.25
2022-07-29T10:53:34.002Z,19.61
2022-07-29T10:54:33.908Z,25.41
2022-07-29T10:55:34.028Z,19.61
2022-07-29T10:56:34.058Z,24.44
2022-07-29T10:57:53.357Z,27.67
2022-07-29T10:58:34.288Z,18.00
2022-07-29T10:59:36.338Z,21.22
2022-07-29T11:00:34.404Z,23.48
2022-07-29T11:01:37.409Z,26.38
2022-07-29T11:02:41.780Z,24.77
2022-07-29T11:03:34.740Z,19.29
2022-07-29T11:04:34.735Z,24.12
2022-07-29T11:05:40.814Z,14.13
2022-07-29T11:06:34.928Z,25.41
2022-07-29T11:07:45.747Z,19.93
2022-07-29T11:08:35.162Z,17.03
2022-07-29T11:09:38.408Z,19.93
2022-07-29T11:10:35.230Z,20.25
2022-07-29T11:11:35.301Z,20.58
2022-07-29T11:12:35.392Z,26.05
2022-07-29T11:13:39.716Z,19.93
2022-07-29T11:14:35.554Z,19.29
2022-07-29T11:15:35.598Z,20.90
2022-07-29T11:16:35.678Z,27.34
2022-07-29T11:17:46.881Z,20.25
2022-07-29T11:18:35.911Z,20.58
2022-07-29T11:19:36.043Z,20.25
2022-07-29T12:07:11.105Z,20.58
2022-07-29T12:07:20.424Z,30.89
2022-07-29T12:08:20.400Z,27.02
2022-07-29T12:09:20.658Z,30.57
2022-07-29T12:10:30.429Z,28.63
2022-07-29T12:11:21.627Z,34.43
2022-07-29T12:12:20.714Z,25.73
2022-07-29T12:13:20.757Z,25.41
2022-07-29T12:14:20.811Z,30.24
2022-07-29T12:15:20.907Z,37.66
2022-07-29T12:16:25.471Z,25.41
2022-07-29T12:17:21.093Z,32.82
2022-07-29T12:18:23.899Z,32.50
2022-07-29T12:19:21.217Z,34.43
2022-07-29T12:20:21.251Z,37.66
2022-07-29T12:21:21.371Z,34.76
2022-07-29T12:22:21.556Z,36.04
2022-07-29T12:23:21.504Z,32.50
2022-07-29T12:24:22.710Z,37.98
2022-07-29T12:25:36.982Z,41.52
2022-07-29T12:26:25.802Z,41.85
2022-07-29T12:27:29.360Z,36.04
2022-07-29T12:28:26.555Z,34.11
2022-07-29T12:29:33.871Z,44.42
2022-07-29T12:30:22.073Z,40.23
2022-07-29T12:31:42.711Z,39.91
2022-07-29T12:32:22.344Z,40.56
2022-07-29T12:33:22.374Z,41.20
2022-07-29T12:34:22.374Z,41.52
2022-07-29T12:35:22.469Z,46.68
2022-07-29T12:36:22.499Z,42.17
2022-07-29T12:37:40.450Z,42.17
2022-07-29T12:38:22.661Z,42.81
2022-07-29T12:39:22.784Z,41.52
2022-07-29T12:40:22.813Z,37.66
2022-07-29T12:41:22.923Z,44.10
2022-07-29T12:42:23.070Z,40.56
2022-07-29T12:43:23.078Z,39.27
2022-07-29T12:44:23.168Z,44.10
2022-07-29T12:45:23.291Z,44.10
2022-07-29T12:46:23.497Z,44.42
2022-07-29T12:47:23.454Z,44.42
2022-07-29T12:48:23.517Z,42.81
2022-07-29T12:49:23.576Z,45.39
2022-07-29T12:50:26.457Z,45.71
2022-07-29T12:51:23.724Z,45.07
2022-07-29T12:52:23.817Z,45.71
2022-07-29T12:53:23.841Z,45.07
2022-07-29T12:54:23.926Z,45.71
2022-07-29T12:55:30.403Z,45.39
2022-07-29T12:56:42.166Z,50.22
2022-07-29T12:57:24.289Z,41.52
2022-07-29T12:58:24.208Z,38.62
2022-07-29T12:59:24.301Z,49.58
2022-07-29T13:00:24.439Z,43.78
2022-07-29T13:01:24.526Z,43.46
2022-07-29T13:02:24.636Z,43.13
2022-07-29T13:03:24.618Z,43.13
2022-07-29T13:04:24.688Z,42.49
2022-07-29T13:05:24.763Z,44.75
2022-07-29T13:06:24.832Z,49.90
2022-07-29T13:07:54.376Z,41.20
2022-07-29T13:08:25.018Z,43.78
2022-07-29T13:09:25.090Z,48.29
2022-07-29T13:10:25.204Z,43.46
2022-07-29T13:11:25.242Z,47.97
2022-07-29T13:12:25.328Z,45.39
2022-07-29T13:13:25.438Z,42.49
2022-07-29T13:14:25.461Z,42.17
2022-07-29T13:15:25.542Z,41.52
2022-07-29T13:16:25.632Z,47.00
2022-07-29T13:17:25.751Z,39.59
2022-07-29T13:18:25.727Z,39.59
2022-07-29T13:19:25.781Z,38.95
2022-07-29T13:20:25.877Z,38.95
2022-07-29T13:21:25.990Z,39.59
2022-07-29T13:22:26.074Z,41.20
2022-07-29T13:23:26.116Z,39.27
2022-07-29T13:24:26.194Z,32.82
2022-07-29T13:25:26.273Z,38.95
2022-07-29T13:26:26.350Z,38.62
2022-07-29T13:27:26.552Z,38.30
2022-07-29T13:28:26.477Z,35.40
2022-07-29T13:29:31.387Z,45.07
2022-07-29T13:30:26.650Z,42.81
2022-07-29T13:31:26.704Z,37.66
2022-07-29T13:32:28.210Z,37.01
2022-07-29T13:33:26.868Z,42.17
2022-07-29T13:34:26.909Z,36.69
2022-07-29T13:35:26.977Z,36.69
2022-07-29T13:36:27.057Z,36.04
2022-07-29T13:37:27.178Z,38.62
2022-07-29T13:38:31.035Z,41.20
2022-07-29T13:39:27.352Z,41.20
2022-07-29T13:40:27.385Z,42.49
2022-07-29T13:41:27.506Z,44.10
2022-07-29T13:42:27.631Z,40.88
2022-07-29T13:43:27.691Z,41.85